createdAt,value
2019-01-09T00:01:48.630Z,8.50
2019-01-09T00:04:17.069Z,8.40
2019-01-09T00:06:45.599Z,8.50
2019-01-09T00:09:14.079Z,8.60
2019-01-09T00:11:42.906Z,8.70
2019-01-09T00:14:11.435Z,8.70
2019-01-09T00:16:39.887Z,8.60
2019-01-09T00:19:08.915Z,8.60
2019-01-09T00:21:37.359Z,8.60
2019-01-09T00:24:05.911Z,8.70
2019-01-09T00:26:34.402Z,8.60
2019-01-09T00:29:02.917Z,8.60
2019-01-09T00:31:31.409Z,8.60
2019-01-09T00:33:59.897Z,8.60
2019-01-09T00:36:28.451Z,8.50
2019-01-09T00:38:57.045Z,8.50
2019-01-09T00:41:25.475Z,8.40
2019-01-09T00:43:54.091Z,8.30
2019-01-09T00:46:22.589Z,8.20
2019-01-09T00:48:51.102Z,8.20
2019-01-09T00:51:19.621Z,8.20
2019-01-09T00:53:48.226Z,8.20
2019-01-09T00:56:17.118Z,8.30
2019-01-09T00:58:45.714Z,8.30
2019-01-09T01:01:14.720Z,8.30
2019-01-09T01:03:52.166Z,8.40
2019-01-09T01:06:26.432Z,8.40
2019-01-09T01:09:04.079Z,8.30
2019-01-09T01:11:41.201Z,8.30
2019-01-09T01:14:24.642Z,8.20
2019-01-09T01:17:04.716Z,8.20
2019-01-09T01:19:54.606Z,8.00
2019-01-09T01:22:44.002Z,8.00
2019-01-09T01:25:18.505Z,8.00
2019-01-09T01:27:59.039Z,8.10
2019-01-09T01:30:45.920Z,8.10
2019-01-09T01:33:32.409Z,8.10
2019-01-09T01:36:28.161Z,8.10
2019-01-09T01:39:20.232Z,8.20
2019-01-09T01:41:57.610Z,8.20
2019-01-09T01:44:53.198Z,8.30
2019-01-09T01:47:51.531Z,8.30
2019-01-09T01:50:37.921Z,8.40
2019-01-09T01:53:15.234Z,8.40
2019-01-09T01:56:12.747Z,8.40
2019-01-09T01:58:44.273Z,8.50
2019-01-09T02:01:43.069Z,8.50
2019-01-09T02:04:31.172Z,8.50
2019-01-09T02:07:20.545Z,8.50
2019-01-09T02:10:09.003Z,8.40
2019-01-09T02:12:46.758Z,8.30
2019-01-09T02:15:35.035Z,8.20
2019-01-09T02:18:06.542Z,8.20
2019-01-09T02:20:43.894Z,8.20
2019-01-09T02:23:15.486Z,8.20
2019-01-09T02:26:02.303Z,8.20
2019-01-09T02:28:48.678Z,8.20
2019-01-09T02:31:25.931Z,8.20
2019-01-09T02:33:54.376Z,8.20
2019-01-09T02:36:22.950Z,8.20
2019-01-09T02:38:51.392Z,8.20
2019-01-09T02:41:19.842Z,8.20
2019-01-09T02:43:48.284Z,8.20
2019-01-09T02:46:16.731Z,8.20
2019-01-09T02:48:45.452Z,8.20
2019-01-09T02:51:14.246Z,8.20
2019-01-09T02:53:42.690Z,8.20
2019-01-09T02:56:11.189Z,8.20
2019-01-09T02:58:39.632Z,8.20
2019-01-09T03:01:08.161Z,8.20
2019-01-09T03:03:36.606Z,8.20
2019-01-09T03:06:05.254Z,8.20
2019-01-09T03:08:33.688Z,8.20
2019-01-09T03:11:02.272Z,8.10
2019-01-09T03:13:30.710Z,8.20
2019-01-09T03:15:59.150Z,8.10
2019-01-09T03:18:27.684Z,8.20
2019-01-09T03:20:56.122Z,8.30
2019-01-09T03:23:25.105Z,8.30
2019-01-09T03:25:53.673Z,8.30
2019-01-09T03:28:22.173Z,8.40
2019-01-09T03:30:50.621Z,8.30
2019-01-09T03:33:19.141Z,8.30
2019-01-09T03:35:47.627Z,8.30
2019-01-09T03:38:16.077Z,8.30
2019-01-09T03:40:44.506Z,8.30
2019-01-09T03:43:12.954Z,8.20
2019-01-09T03:45:41.550Z,8.30
2019-01-09T03:48:10.027Z,8.30
2019-01-09T03:50:38.542Z,8.40
2019-01-09T03:53:06.991Z,8.30
2019-01-09T03:55:35.413Z,8.40
2019-01-09T03:58:03.866Z,8.30
2019-01-09T04:00:32.291Z,8.30
2019-01-09T04:03:00.742Z,8.20
2019-01-09T04:05:29.313Z,8.20
2019-01-09T04:07:57.839Z,8.10
2019-01-09T04:10:26.310Z,8.20
2019-01-09T04:12:54.870Z,8.20
2019-01-09T04:15:23.539Z,8.20
2019-01-09T04:17:52.137Z,8.10
2019-01-09T04:20:20.581Z,8.10
2019-01-09T04:22:49.024Z,8.00
2019-01-09T04:25:18.743Z,8.00
2019-01-09T04:27:47.174Z,7.90
2019-01-09T04:30:17.670Z,7.90
2019-01-09T04:32:46.111Z,7.90
2019-01-09T04:35:14.647Z,7.80
2019-01-09T04:37:43.141Z,7.80
2019-01-09T04:40:11.607Z,7.80
2019-01-09T04:42:40.053Z,7.70
2019-01-09T04:45:08.498Z,7.60
2019-01-09T04:47:36.932Z,7.60
2019-01-09T04:50:06.019Z,7.50
2019-01-09T04:52:34.453Z,7.50
2019-01-09T04:55:02.902Z,7.50
2019-01-09T04:57:31.489Z,7.40
2019-01-09T05:00:00.051Z,7.40
2019-01-09T05:02:28.551Z,7.40
2019-01-09T05:04:57.007Z,7.30
2019-01-09T05:07:25.428Z,7.30
2019-01-09T05:09:53.930Z,7.30
2019-01-09T05:12:22.476Z,7.30
2019-01-09T05:14:50.956Z,7.30
2019-01-09T05:17:19.413Z,7.30
2019-01-09T05:19:47.863Z,7.30
2019-01-09T05:22:16.333Z,7.30
2019-01-09T05:24:45.719Z,7.30
2019-01-09T05:27:14.303Z,7.30
2019-01-09T05:29:42.765Z,7.30
2019-01-09T05:32:11.289Z,7.30
2019-01-09T05:34:39.766Z,7.20
2019-01-09T05:37:09.664Z,7.20
2019-01-09T05:39:39.749Z,7.20
2019-01-09T05:42:08.613Z,7.10
2019-01-09T05:44:37.046Z,7.00
2019-01-09T05:47:05.490Z,6.90
2019-01-09T05:49:34.084Z,6.80
2019-01-09T05:52:02.888Z,6.70
2019-01-09T05:54:31.419Z,6.70
2019-01-09T05:56:59.866Z,6.70
2019-01-09T05:59:28.301Z,6.70
2019-01-09T06:01:56.762Z,6.70
2019-01-09T06:04:25.273Z,6.70
2019-01-09T06:06:53.882Z,6.70
2019-01-09T06:09:22.334Z,6.70
2019-01-09T06:11:50.831Z,6.70
2019-01-09T06:14:19.262Z,6.70
2019-01-09T06:16:47.773Z,6.70
2019-01-09T06:19:16.266Z,6.70
2019-01-09T06:21:44.723Z,6.70
2019-01-09T06:24:13.151Z,6.70
2019-01-09T06:26:41.715Z,6.70
2019-01-09T06:29:10.214Z,6.70
2019-01-09T06:31:38.708Z,6.70
2019-01-09T06:34:07.259Z,6.70
2019-01-09T06:36:35.727Z,6.70
2019-01-09T06:39:06.290Z,6.70
2019-01-09T06:41:34.812Z,6.80
2019-01-09T06:44:03.245Z,6.80
2019-01-09T06:46:31.710Z,6.80
2019-01-09T06:49:00.236Z,6.80
2019-01-09T06:51:28.773Z,6.80
2019-01-09T06:53:57.254Z,6.80
2019-01-09T06:56:25.726Z,6.80
2019-01-09T06:58:54.153Z,6.80
2019-01-09T07:01:22.599Z,6.80
2019-01-09T07:03:51.132Z,6.90
2019-01-09T07:06:19.559Z,6.90
2019-01-09T07:08:48.075Z,6.90
2019-01-09T07:11:16.596Z,6.90
2019-01-09T07:13:45.125Z,6.90
2019-01-09T07:16:13.549Z,7.00
2019-01-09T07:18:41.993Z,7.00
2019-01-09T07:21:10.490Z,7.00
2019-01-09T07:23:39.078Z,7.00
2019-01-09T07:26:07.781Z,7.10
2019-01-09T07:28:36.284Z,7.10
2019-01-09T07:31:04.777Z,7.10
2019-01-09T07:33:33.295Z,7.20
2019-01-09T07:36:01.807Z,7.30
2019-01-09T07:38:30.250Z,7.30
2019-01-09T07:40:58.746Z,7.30
2019-01-09T07:43:27.190Z,7.40
2019-01-09T07:45:55.807Z,7.50
2019-01-09T07:48:24.386Z,7.50
2019-01-09T07:50:52.827Z,7.40
2019-01-09T07:53:21.278Z,7.50
2019-01-09T07:55:49.708Z,7.40
2019-01-09T07:58:18.301Z,7.50
2019-01-09T08:00:46.903Z,7.40
2019-01-09T08:03:15.440Z,7.50
2019-01-09T08:05:43.864Z,7.50
2019-01-09T08:08:12.450Z,7.60
2019-01-09T08:10:41.364Z,7.60
2019-01-09T08:13:09.794Z,7.60
2019-01-09T08:15:38.237Z,7.70
2019-01-09T08:18:06.661Z,7.80
2019-01-09T08:20:35.112Z,7.90
2019-01-09T08:23:03.541Z,7.80
2019-01-09T08:25:31.987Z,7.90
2019-01-09T08:28:00.410Z,7.90
2019-01-09T08:30:28.854Z,8.00
2019-01-09T08:32:57.292Z,8.00
2019-01-09T08:35:25.749Z,8.00
2019-01-09T08:38:02.410Z,8.00
2019-01-09T08:40:24.515Z,8.00
2019-01-09T08:42:53.190Z,8.00
2019-01-09T08:45:21.669Z,8.10
2019-01-09T08:47:50.112Z,8.10
2019-01-09T08:50:18.566Z,8.10
2019-01-09T08:52:47.010Z,8.10
2019-01-09T08:55:15.470Z,8.20
2019-01-09T08:57:43.903Z,8.30
2019-01-09T09:00:12.442Z,8.30
2019-01-09T09:02:40.870Z,8.30
2019-01-09T09:05:09.580Z,8.30
2019-01-09T09:07:39.585Z,8.30
2019-01-09T09:10:10.510Z,8.20
2019-01-09T09:12:38.940Z,8.20
2019-01-09T09:15:12.782Z,8.10
2019-01-09T09:17:41.342Z,8.10
2019-01-09T09:20:12.030Z,8.00
2019-01-09T09:22:40.455Z,8.00
2019-01-09T09:25:09.939Z,8.00
2019-01-09T09:27:38.379Z,8.00
2019-01-09T09:30:09.907Z,8.00
2019-01-09T09:32:40.970Z,8.10
2019-01-09T09:35:09.438Z,8.10
2019-01-09T09:37:37.927Z,8.10
2019-01-09T09:40:09.799Z,8.20
2019-01-09T09:42:38.313Z,8.30
2019-01-09T09:45:09.976Z,8.40
2019-01-09T09:47:38.480Z,8.50
2019-01-09T09:50:12.923Z,8.70
2019-01-09T09:52:41.371Z,8.80
2019-01-09T09:55:12.995Z,8.90
2019-01-09T09:57:40.137Z,9.00
2019-01-09T10:02:44.288Z,9.00
2019-01-09T10:05:12.969Z,8.90
2019-01-09T10:07:41.439Z,9.00
2019-01-09T10:10:12.421Z,8.90
2019-01-09T10:12:40.890Z,8.90
2019-01-09T10:15:15.324Z,8.90
2019-01-09T10:17:43.842Z,8.90
2019-01-09T10:20:18.014Z,8.80
2019-01-09T10:22:47.455Z,8.80
2019-01-09T10:25:16.181Z,8.80
2019-01-09T10:27:44.641Z,8.80
2019-01-09T10:30:21.376Z,8.80
2019-01-09T10:32:49.918Z,8.70
2019-01-09T10:35:18.439Z,8.70
2019-01-09T10:37:47.833Z,8.50
2019-01-09T10:40:18.918Z,8.50
2019-01-09T10:42:47.544Z,8.50
2019-01-09T10:45:18.916Z,8.50
2019-01-09T10:47:47.376Z,8.40
2019-01-09T10:50:17.039Z,8.40
2019-01-09T10:52:45.849Z,8.30
2019-01-09T10:55:17.146Z,8.30
2019-01-09T10:57:45.808Z,8.20
2019-01-09T11:00:22.939Z,8.10
2019-01-09T11:02:51.391Z,8.10
2019-01-09T11:05:20.490Z,8.10
2019-01-09T11:07:48.987Z,8.10
2019-01-09T11:10:19.467Z,8.10
2019-01-09T11:12:48.223Z,8.10
2019-01-09T11:15:16.833Z,8.10
2019-01-09T11:17:45.440Z,8.20
2019-01-09T11:20:18.925Z,8.20
2019-01-09T11:22:47.440Z,8.30
2019-01-09T11:25:21.338Z,8.40
2019-01-09T11:27:50.146Z,8.40
2019-01-09T11:30:19.104Z,8.60
2019-01-09T11:32:47.560Z,8.80
2019-01-09T11:35:18.327Z,8.90
2019-01-09T11:37:46.863Z,9.00
2019-01-09T11:40:17.435Z,9.10
2019-01-09T11:42:54.923Z,9.10
2019-01-09T11:45:23.621Z,9.10
2019-01-09T11:47:52.143Z,9.00
2019-01-09T11:50:20.647Z,9.20
2019-01-09T11:52:49.100Z,9.30
2019-01-09T11:55:17.538Z,9.30
2019-01-09T11:57:45.998Z,9.10
2019-01-09T12:00:22.702Z,9.00
2019-01-09T12:02:51.152Z,9.00
2019-01-09T12:05:19.734Z,9.10
2019-01-09T12:07:48.330Z,9.00
2019-01-09T12:10:29.820Z,8.90
2019-01-09T12:12:52.409Z,8.80
2019-01-09T12:15:20.983Z,8.70
2019-01-09T12:17:50.999Z,8.70
2019-01-09T12:20:20.326Z,8.80
2019-01-09T12:22:49.626Z,8.80
2019-01-09T12:25:18.259Z,8.90
2019-01-09T12:27:46.882Z,8.90
2019-01-09T12:30:23.787Z,8.80
2019-01-09T12:32:55.117Z,8.90
2019-01-09T12:35:23.613Z,8.90
2019-01-09T12:37:52.117Z,8.90
2019-01-09T12:40:22.183Z,9.00
2019-01-09T12:42:50.670Z,9.00
2019-01-09T12:45:19.485Z,8.90
2019-01-09T12:47:47.932Z,8.90
2019-01-09T12:50:19.451Z,9.00
2019-01-09T12:52:47.889Z,9.10
2019-01-09T12:55:16.359Z,9.10
2019-01-09T12:57:44.824Z,9.20
2019-01-09T13:00:16.445Z,9.20
2019-01-09T13:02:44.957Z,9.10
2019-01-09T13:05:13.940Z,9.10
2019-01-09T13:07:42.369Z,9.20
2019-01-09T13:10:11.461Z,9.30
2019-01-09T13:12:39.883Z,9.30
2019-01-09T13:15:27.712Z,9.40
2019-01-09T13:17:56.193Z,9.40
2019-01-09T13:20:24.715Z,9.40
2019-01-09T13:22:53.188Z,9.40
2019-01-09T13:25:21.638Z,9.50
2019-01-09T13:27:50.062Z,9.60
2019-01-09T13:30:22.256Z,9.50
2019-01-09T13:32:50.785Z,9.40
2019-01-09T13:35:19.226Z,9.30
2019-01-09T13:37:47.831Z,9.30
2019-01-09T13:40:18.302Z,9.10
2019-01-09T13:42:46.877Z,9.10
2019-01-09T13:45:19.884Z,9.00
2019-01-09T13:47:48.720Z,9.00
2019-01-09T13:50:18.968Z,9.00
2019-01-09T13:52:47.392Z,8.80
2019-01-09T13:55:16.907Z,8.70
2019-01-09T13:57:45.486Z,8.70
2019-01-09T14:00:16.748Z,8.80
2019-01-09T14:02:45.237Z,8.70
2019-01-09T14:05:14.224Z,8.50
2019-01-09T14:07:42.813Z,8.50
2019-01-09T14:10:17.193Z,8.50
2019-01-09T14:12:45.707Z,8.60
2019-01-09T14:15:17.258Z,8.60
2019-01-09T14:17:45.845Z,8.70
2019-01-09T14:20:14.516Z,8.80
2019-01-09T14:22:43.993Z,8.90
2019-01-09T14:25:14.479Z,9.00
2019-01-09T14:27:43.138Z,8.90
2019-01-09T14:30:17.426Z,8.90
2019-01-09T14:32:46.162Z,8.90
2019-01-09T14:35:14.731Z,8.90
2019-01-09T14:37:43.263Z,8.80
2019-01-09T14:40:14.408Z,8.80
2019-01-09T14:42:43.030Z,8.80
2019-01-09T14:45:13.627Z,8.80
2019-01-09T14:47:42.258Z,8.80
2019-01-09T14:50:17.077Z,8.70
2019-01-09T14:52:45.874Z,8.70
2019-01-09T14:55:15.222Z,8.70
2019-01-09T14:57:44.010Z,8.70
2019-01-09T15:00:15.541Z,8.70
2019-01-09T15:02:43.997Z,8.70
2019-01-09T15:05:13.072Z,8.70
2019-01-09T15:07:41.682Z,8.80
2019-01-09T15:10:16.204Z,8.90
2019-01-09T15:12:45.061Z,8.80
2019-01-09T15:15:15.919Z,8.70
2019-01-09T15:17:44.675Z,8.60
2019-01-09T15:20:16.075Z,8.60
2019-01-09T15:22:44.700Z,8.50
2019-01-09T15:25:33.327Z,8.40
2019-01-09T15:28:01.775Z,8.40
2019-01-09T15:30:30.578Z,8.30
2019-01-09T15:32:59.078Z,8.30
2019-01-09T15:35:27.961Z,8.40
2019-01-09T15:37:56.415Z,8.40
2019-01-09T15:40:26.919Z,8.40
2019-01-09T15:42:55.610Z,8.50
2019-01-09T15:45:24.390Z,8.50
2019-01-09T15:47:52.839Z,8.40
2019-01-09T15:50:26.416Z,8.40
2019-01-09T15:52:54.868Z,8.40
2019-01-09T15:55:23.533Z,8.30
2019-01-09T15:57:53.719Z,8.20
2019-01-09T16:00:25.050Z,8.20
2019-01-09T16:02:53.584Z,8.20
2019-01-09T16:05:22.009Z,8.20
2019-01-09T16:07:50.614Z,8.20
2019-01-09T16:10:21.385Z,8.10
2019-01-09T16:12:49.805Z,8.20
2019-01-09T16:15:19.251Z,8.30
2019-01-09T16:17:47.742Z,8.30
2019-01-09T16:20:21.874Z,8.30
2019-01-09T16:22:50.715Z,8.30
2019-01-09T16:25:19.598Z,8.20
2019-01-09T16:27:48.168Z,8.10
2019-01-09T16:30:40.903Z,8.10
2019-01-09T16:33:09.368Z,8.10
2019-01-09T16:35:38.248Z,8.00
2019-01-09T16:38:06.727Z,8.00
2019-01-09T16:40:35.294Z,7.80
2019-01-09T16:43:03.794Z,7.70
2019-01-09T16:45:32.303Z,7.70
2019-01-09T16:48:00.745Z,7.70
2019-01-09T16:50:29.529Z,7.70
2019-01-09T16:52:58.055Z,7.70
2019-01-09T16:55:26.986Z,7.70
2019-01-09T16:57:55.591Z,7.60
2019-01-09T17:00:33.046Z,7.60
2019-01-09T17:03:01.756Z,7.60
2019-01-09T17:05:30.274Z,7.60
2019-01-09T17:07:58.922Z,7.60
2019-01-09T17:10:32.100Z,7.60
2019-01-09T17:12:57.760Z,7.50
2019-01-09T17:15:26.282Z,7.50
2019-01-09T17:17:54.777Z,7.50
2019-01-09T17:20:28.330Z,7.50
2019-01-09T17:22:57.194Z,7.40
2019-01-09T17:25:25.938Z,7.40
2019-01-09T17:27:54.615Z,7.30
2019-01-09T17:30:29.201Z,7.40
2019-01-09T17:32:57.774Z,7.40
2019-01-09T17:35:28.871Z,7.40
2019-01-09T17:37:57.459Z,7.40
2019-01-09T17:40:26.124Z,7.40
2019-01-09T17:42:57.139Z,7.50
2019-01-09T17:45:25.658Z,7.50
2019-01-09T17:47:54.156Z,7.50
2019-01-09T17:50:25.793Z,7.40
2019-01-09T17:52:54.590Z,7.30
2019-01-09T17:55:23.057Z,7.40
2019-01-09T17:57:51.482Z,7.40
2019-01-09T18:00:22.942Z,7.50
2019-01-09T18:02:53.143Z,7.40
2019-01-09T18:05:21.970Z,7.40
2019-01-09T18:07:52.163Z,7.40
2019-01-09T18:10:22.655Z,7.30
2019-01-09T18:12:51.355Z,7.30
2019-01-09T18:15:21.643Z,7.30
2019-01-09T18:17:50.776Z,7.20
2019-01-09T18:20:23.194Z,7.30
2019-01-09T18:22:51.840Z,7.20
2019-01-09T18:25:23.192Z,7.20
2019-01-09T18:27:51.949Z,7.30
2019-01-09T18:30:27.218Z,7.20
2019-01-09T18:32:58.875Z,7.10
2019-01-09T18:35:33.335Z,7.10
2019-01-09T18:38:23.181Z,7.00
2019-01-09T18:41:00.675Z,7.00
2019-01-09T18:43:45.071Z,6.90
2019-01-09T18:46:35.845Z,6.90
2019-01-09T18:49:16.445Z,7.00
2019-01-09T18:51:56.799Z,7.00
2019-01-09T18:54:25.390Z,7.00
2019-01-09T18:56:54.384Z,7.00
2019-01-09T18:59:22.809Z,7.00
2019-01-09T19:01:51.338Z,7.00
2019-01-09T19:04:19.920Z,7.00
2019-01-09T19:06:48.463Z,7.00
2019-01-09T19:09:17.031Z,7.00
2019-01-09T19:11:50.612Z,7.10
2019-01-09T19:14:16.301Z,7.10
2019-01-09T19:16:44.860Z,7.10
2019-01-09T19:19:13.467Z,7.20
2019-01-09T19:21:44.061Z,7.30
2019-01-09T19:24:12.605Z,7.30
2019-01-09T19:26:41.167Z,7.30
2019-01-09T19:29:10.040Z,7.40
2019-01-09T19:31:38.549Z,7.40
2019-01-09T19:34:07.620Z,7.20
2019-01-09T19:36:36.215Z,7.20
2019-01-09T19:39:07.872Z,7.20
2019-01-09T19:41:36.316Z,7.20
2019-01-09T19:44:06.470Z,7.30
2019-01-09T19:46:35.027Z,7.30
2019-01-09T19:49:05.707Z,7.20
2019-01-09T19:51:33.835Z,7.20
2019-01-09T19:54:02.351Z,7.30
2019-01-09T19:56:31.243Z,7.40
2019-01-09T19:58:59.687Z,7.40
2019-01-09T20:01:28.535Z,7.40
2019-01-09T20:03:56.994Z,7.30
2019-01-09T20:06:25.549Z,7.20
2019-01-09T20:08:54.126Z,7.20
2019-01-09T20:11:26.563Z,7.20
2019-01-09T20:13:53.047Z,7.20
2019-01-09T20:16:21.610Z,7.30
2019-01-09T20:18:50.332Z,7.40
2019-01-09T20:21:18.948Z,7.40
2019-01-09T20:23:47.509Z,7.30
2019-01-09T20:26:16.035Z,7.40
2019-01-09T20:28:44.608Z,7.40
2019-01-09T20:31:13.275Z,7.30
2019-01-09T20:33:41.927Z,7.30
2019-01-09T20:36:10.369Z,7.30
2019-01-09T20:38:39.436Z,7.10
2019-01-09T20:41:07.954Z,7.10
2019-01-09T20:43:36.469Z,7.10
2019-01-09T20:46:05.225Z,7.00
2019-01-09T20:48:33.929Z,7.10
2019-01-09T20:51:04.443Z,7.10
2019-01-09T20:53:32.943Z,7.00
2019-01-09T20:56:01.536Z,7.10
2019-01-09T20:58:29.971Z,7.10
2019-01-09T21:00:58.509Z,7.10
2019-01-09T21:03:27.183Z,7.10
2019-01-09T21:05:55.714Z,7.10
2019-01-09T21:08:24.605Z,7.10
2019-01-09T21:10:53.152Z,7.10
2019-01-09T21:13:21.831Z,7.10
2019-01-09T21:15:50.442Z,7.20
2019-01-09T21:18:19.029Z,7.30
2019-01-09T21:20:47.643Z,7.20
2019-01-09T21:23:16.134Z,7.20
2019-01-09T21:25:44.759Z,7.20
2019-01-09T21:28:13.304Z,7.00
2019-01-09T21:30:41.855Z,7.10
2019-01-09T21:33:10.354Z,7.00
2019-01-09T21:35:38.810Z,6.90
2019-01-09T21:38:07.385Z,6.90
2019-01-09T21:40:36.042Z,6.90
2019-01-09T21:43:04.569Z,6.90
2019-01-09T21:45:33.712Z,6.80
2019-01-09T21:48:02.211Z,6.80
2019-01-09T21:50:30.793Z,6.70
2019-01-09T21:52:59.463Z,6.80
2019-01-09T21:55:27.911Z,6.80
2019-01-09T21:57:56.333Z,6.90
2019-01-09T22:00:26.709Z,7.00
2019-01-09T22:02:55.284Z,7.00
2019-01-09T22:05:24.836Z,7.10
2019-01-09T22:07:53.430Z,7.10
2019-01-09T22:10:25.049Z,7.10
2019-01-09T22:12:53.641Z,7.10
2019-01-09T22:15:22.582Z,7.10
2019-01-09T22:17:51.150Z,7.10
2019-01-09T22:20:19.901Z,7.20
2019-01-09T22:22:48.737Z,7.20
2019-01-09T22:25:17.525Z,7.20
2019-01-09T22:27:46.179Z,7.20
2019-01-09T22:30:23.443Z,7.30
2019-01-09T22:32:52.447Z,7.30
2019-01-09T22:35:21.019Z,7.40
2019-01-09T22:37:49.500Z,7.40
2019-01-09T22:40:21.973Z,7.30
2019-01-09T22:42:50.496Z,7.30
2019-01-09T22:45:19.095Z,7.40
2019-01-09T22:47:47.812Z,7.30
2019-01-09T22:50:18.874Z,7.30
2019-01-09T22:52:47.497Z,7.20
2019-01-09T22:55:15.975Z,7.20
2019-01-09T22:57:44.481Z,7.20
2019-01-09T23:00:21.920Z,7.30
2019-01-09T23:02:50.390Z,7.30
2019-01-09T23:05:18.914Z,7.40
2019-01-09T23:07:47.515Z,7.30
2019-01-09T23:10:16.558Z,7.50
2019-01-09T23:12:45.107Z,7.50
2019-01-09T23:15:13.930Z,7.40
2019-01-09T23:17:42.397Z,7.40
2019-01-09T23:20:13.932Z,7.50
2019-01-09T23:22:42.891Z,7.50
2019-01-09T23:25:11.670Z,7.50
2019-01-09T23:27:40.117Z,7.60
2019-01-09T23:30:10.991Z,7.60
2019-01-09T23:32:39.771Z,7.60
2019-01-09T23:35:10.926Z,7.60
2019-01-09T23:37:39.914Z,7.60
2019-01-09T23:40:16.354Z,7.50
2019-01-09T23:42:44.857Z,7.40
2019-01-09T23:45:14.749Z,7.60
2019-01-09T23:47:43.252Z,7.60
2019-01-09T23:50:12.385Z,7.60
2019-01-09T23:52:41.006Z,7.60
2019-01-09T23:55:11.446Z,7.60
2019-01-09T23:57:39.980Z,7.40
